createdAt,value
2018-11-11T00:00:26.731Z,12.22
2018-11-11T00:01:26.732Z,12.25
2018-11-11T00:02:26.704Z,12.28
2018-11-11T00:03:26.695Z,12.23
2018-11-11T00:04:26.687Z,12.30
2018-11-11T00:05:26.716Z,12.18
2018-11-11T00:06:26.663Z,12.22
2018-11-11T00:07:26.660Z,12.10
2018-11-11T00:08:26.897Z,12.17
2018-11-11T00:09:26.628Z,12.08
2018-11-11T00:10:26.647Z,12.13
2018-11-11T00:11:26.606Z,12.07
2018-11-11T00:12:26.598Z,12.22
2018-11-11T00:13:26.584Z,12.10
2018-11-11T00:14:26.581Z,12.03
2018-11-11T00:15:26.560Z,12.07
2018-11-11T00:16:26.580Z,12.03
2018-11-11T00:17:26.537Z,12.08
2018-11-11T00:18:26.570Z,11.99
2018-11-11T00:19:26.520Z,11.87
2018-11-11T00:20:26.511Z,11.93
2018-11-11T00:21:26.489Z,11.85
2018-11-11T00:22:26.509Z,11.88
2018-11-11T00:23:26.469Z,11.89
2018-11-11T00:24:26.461Z,11.91
2018-11-11T00:25:26.487Z,11.89
2018-11-11T00:26:26.443Z,12.05
2018-11-11T00:27:26.431Z,11.93
2018-11-11T00:28:26.471Z,12.07
2018-11-11T00:29:26.403Z,12.03
2018-11-11T00:30:26.389Z,12.10
2018-11-11T00:31:26.407Z,11.97
2018-11-11T00:32:26.379Z,11.97
2018-11-11T00:33:26.359Z,12.04
2018-11-11T00:34:26.380Z,12.10
2018-11-11T00:35:26.336Z,11.99
2018-11-11T00:36:26.364Z,12.03
2018-11-11T00:37:26.315Z,11.96
2018-11-11T00:38:26.448Z,12.04
2018-11-11T00:39:26.324Z,12.11
2018-11-11T00:40:26.284Z,12.08
2018-11-11T00:41:26.273Z,12.05
2018-11-11T00:42:26.293Z,12.05
2018-11-11T00:43:26.249Z,12.03
2018-11-11T00:44:26.239Z,12.08
2018-11-11T00:45:26.257Z,11.99
2018-11-11T00:46:26.213Z,11.99
2018-11-11T00:47:26.202Z,11.91
2018-11-11T00:48:26.192Z,11.85
2018-11-11T00:49:26.178Z,11.85
2018-11-11T00:50:26.168Z,11.82
2018-11-11T00:51:26.185Z,11.87
2018-11-11T00:52:26.196Z,11.82
2018-11-11T00:53:26.145Z,11.85
2018-11-11T00:54:26.124Z,11.79
2018-11-11T00:55:26.124Z,11.77
2018-11-11T00:56:26.130Z,11.77
2018-11-11T00:57:26.089Z,11.70
2018-11-11T00:58:26.087Z,11.73
2018-11-11T00:59:26.067Z,11.71
2018-11-11T01:00:26.094Z,11.70
2018-11-11T01:01:26.046Z,11.74
2018-11-11T01:02:26.061Z,11.79
2018-11-11T01:03:26.021Z,11.79
2018-11-11T01:04:26.009Z,11.77
2018-11-11T01:05:26.004Z,11.84
2018-11-11T01:06:25.991Z,11.79
2018-11-11T01:07:25.984Z,11.80
2018-11-11T01:08:26.015Z,11.80
2018-11-11T01:09:25.953Z,11.73
2018-11-11T01:10:25.944Z,11.77
2018-11-11T01:11:25.943Z,11.74
2018-11-11T01:12:26.035Z,11.76
2018-11-11T01:13:25.916Z,11.71
2018-11-11T01:14:25.931Z,11.71
2018-11-11T01:15:25.894Z,11.66
2018-11-11T01:16:25.882Z,11.70
2018-11-11T01:17:25.867Z,11.67
2018-11-11T01:18:25.864Z,11.70
2018-11-11T01:19:25.858Z,11.66
2018-11-11T01:20:25.873Z,11.74
2018-11-11T01:21:25.862Z,11.79
2018-11-11T01:22:25.811Z,11.82
2018-11-11T01:23:25.795Z,11.80
2018-11-11T01:24:25.795Z,11.77
2018-11-11T01:25:25.780Z,11.74
2018-11-11T01:26:25.781Z,11.77
2018-11-11T01:27:25.782Z,11.76
2018-11-11T01:28:25.741Z,11.80
2018-11-11T01:29:25.737Z,11.79
2018-11-11T01:30:25.749Z,11.74
2018-11-11T01:31:25.708Z,11.76
2018-11-11T01:32:25.705Z,11.80
2018-11-11T01:33:25.704Z,11.80
2018-11-11T01:34:25.682Z,11.73
2018-11-11T01:35:25.667Z,11.73
2018-11-11T01:36:25.706Z,11.66
2018-11-11T01:37:25.643Z,11.73
2018-11-11T01:38:25.889Z,11.64
2018-11-11T01:39:25.627Z,11.71
2018-11-11T01:40:25.629Z,11.80
2018-11-11T01:41:25.601Z,11.74
2018-11-11T01:42:25.618Z,11.76
2018-11-11T01:43:25.574Z,11.74
2018-11-11T01:44:25.566Z,11.73
2018-11-11T01:45:25.556Z,11.82
2018-11-11T01:46:25.554Z,11.77
2018-11-11T01:47:25.556Z,11.80
2018-11-11T01:48:25.515Z,11.79
2018-11-11T01:49:25.509Z,11.88
2018-11-11T01:50:25.524Z,12.03
2018-11-11T01:51:25.487Z,11.99
2018-11-11T01:52:25.481Z,12.04
2018-11-11T01:53:25.488Z,12.11
2018-11-11T01:54:25.486Z,11.97
2018-11-11T01:55:25.451Z,12.07
2018-11-11T01:56:25.430Z,12.07
2018-11-11T01:57:25.418Z,12.04
2018-11-11T01:58:25.416Z,12.08
2018-11-11T01:59:25.402Z,12.05
2018-11-11T02:00:25.412Z,11.96
2018-11-11T02:01:25.372Z,12.05
2018-11-11T02:02:25.364Z,12.18
2018-11-11T02:03:25.353Z,12.14
2018-11-11T02:04:25.385Z,12.22
2018-11-11T02:05:25.327Z,12.14
2018-11-11T02:06:25.315Z,12.11
2018-11-11T02:07:25.336Z,12.07
2018-11-11T02:08:25.458Z,12.13
2018-11-11T02:09:25.281Z,12.15
2018-11-11T02:10:25.278Z,12.15
2018-11-11T02:11:25.289Z,12.15
2018-11-11T02:12:25.254Z,12.14
2018-11-11T02:13:25.242Z,12.13
2018-11-11T02:14:25.260Z,12.13
2018-11-11T02:15:25.216Z,12.14
2018-11-11T02:16:25.209Z,12.17
2018-11-11T02:17:25.196Z,12.14
2018-11-11T02:18:25.187Z,12.17
2018-11-11T02:19:25.204Z,12.18
2018-11-11T02:20:25.165Z,12.26
2018-11-11T02:21:25.164Z,12.14
2018-11-11T02:22:25.146Z,12.25
2018-11-11T02:23:25.132Z,12.23
2018-11-11T02:24:25.143Z,12.15
2018-11-11T02:25:25.105Z,12.18
2018-11-11T02:26:25.092Z,12.25
2018-11-11T02:27:25.082Z,12.10
2018-11-11T02:28:25.075Z,12.17
2018-11-11T02:29:25.064Z,12.14
2018-11-11T02:30:25.080Z,12.23
2018-11-11T02:31:25.039Z,12.14
2018-11-11T02:32:25.024Z,12.28
2018-11-11T02:33:25.020Z,12.15
2018-11-11T02:34:25.030Z,12.11
2018-11-11T02:35:24.999Z,12.11
2018-11-11T02:36:25.009Z,12.17
2018-11-11T02:37:25.088Z,12.11
2018-11-11T02:38:25.036Z,12.13
2018-11-11T02:39:24.958Z,12.13
2018-11-11T02:40:24.955Z,12.13
2018-11-11T02:41:24.929Z,12.22
2018-11-11T02:42:24.951Z,12.21
2018-11-11T02:43:24.946Z,12.14
2018-11-11T02:44:24.888Z,12.18
2018-11-11T02:45:24.885Z,12.13
2018-11-11T02:46:24.888Z,12.23
2018-11-11T02:47:24.863Z,12.17
2018-11-11T02:48:24.845Z,12.14
2018-11-11T02:49:24.864Z,12.21
2018-11-11T02:50:24.825Z,12.22
2018-11-11T02:51:24.813Z,12.22
2018-11-11T02:52:24.807Z,12.21
2018-11-11T02:53:24.818Z,12.21
2018-11-11T02:54:24.777Z,12.21
2018-11-11T02:55:24.768Z,12.14
2018-11-11T02:56:24.755Z,12.25
2018-11-11T02:57:24.747Z,12.22
2018-11-11T02:58:24.750Z,12.22
2018-11-11T02:59:24.748Z,12.29
2018-11-11T03:00:24.714Z,12.25
2018-11-11T03:01:24.704Z,12.18
2018-11-11T03:02:24.723Z,12.21
2018-11-11T03:03:24.681Z,12.23
2018-11-11T03:04:24.695Z,12.25
2018-11-11T03:05:24.654Z,12.26
2018-11-11T03:06:24.648Z,12.23
2018-11-11T03:07:24.705Z,12.18
2018-11-11T03:08:24.909Z,12.18
2018-11-11T03:09:24.611Z,12.18
2018-11-11T03:10:24.631Z,12.25
2018-11-11T03:11:24.624Z,12.21
2018-11-11T03:12:24.583Z,12.21
2018-11-11T03:13:24.567Z,12.18
2018-11-11T03:14:24.557Z,12.28
2018-11-11T03:15:24.541Z,12.21
2018-11-11T03:16:24.551Z,12.25
2018-11-11T03:17:24.563Z,12.15
2018-11-11T03:18:24.507Z,12.14
2018-11-11T03:19:24.505Z,12.11
2018-11-11T03:20:24.488Z,12.26
2018-11-11T03:21:24.506Z,12.10
2018-11-11T03:22:24.475Z,12.11
2018-11-11T03:23:24.457Z,12.13
2018-11-11T03:24:24.443Z,12.10
2018-11-11T03:25:24.438Z,12.13
2018-11-11T03:26:24.421Z,12.11
2018-11-11T03:27:24.437Z,12.05
2018-11-11T03:28:24.404Z,12.00
2018-11-11T03:29:24.387Z,11.95
2018-11-11T03:30:24.412Z,12.03
2018-11-11T03:31:24.371Z,12.05
2018-11-11T03:32:24.358Z,12.03
2018-11-11T03:33:24.346Z,12.08
2018-11-11T03:34:24.373Z,12.04
2018-11-11T03:35:24.319Z,11.93
2018-11-11T03:36:24.309Z,12.00
2018-11-11T03:37:24.302Z,11.97
2018-11-11T03:38:24.483Z,12.04
2018-11-11T03:39:24.280Z,12.00
2018-11-11T03:40:24.306Z,12.03
2018-11-11T03:41:24.313Z,12.00
2018-11-11T03:42:24.240Z,11.95
2018-11-11T03:43:24.236Z,11.99
2018-11-11T03:44:24.246Z,12.04
2018-11-11T03:45:24.236Z,11.96
2018-11-11T03:46:24.206Z,11.93
2018-11-11T03:47:24.182Z,11.91
2018-11-11T03:48:24.210Z,11.85
2018-11-11T03:49:24.161Z,11.84
2018-11-11T03:50:24.151Z,11.84
2018-11-11T03:51:24.139Z,11.80
2018-11-11T03:52:24.127Z,11.82
2018-11-11T03:53:24.120Z,11.76
2018-11-11T03:54:24.133Z,11.70
2018-11-11T03:55:24.124Z,11.64
2018-11-11T03:56:24.093Z,11.64
2018-11-11T03:57:24.079Z,11.61
2018-11-11T03:58:24.095Z,11.67
2018-11-11T03:59:24.049Z,11.61
2018-11-11T04:00:24.040Z,11.55
2018-11-11T04:01:24.053Z,11.62
2018-11-11T04:02:24.055Z,11.54
2018-11-11T04:03:24.005Z,11.54
2018-11-11T04:04:24.018Z,11.51
2018-11-11T04:05:23.986Z,11.52
2018-11-11T04:06:23.974Z,11.61
2018-11-11T04:07:23.959Z,11.61
2018-11-11T04:08:24.046Z,11.56
2018-11-11T04:09:23.947Z,11.62
2018-11-11T04:10:24.023Z,11.58
2018-11-11T04:11:23.932Z,11.66
2018-11-11T04:12:23.910Z,11.61
2018-11-11T04:13:23.893Z,11.52
2018-11-11T04:14:23.911Z,11.54
2018-11-11T04:15:23.873Z,11.74
2018-11-11T04:16:23.892Z,11.69
2018-11-11T04:17:23.847Z,11.62
2018-11-11T04:18:23.872Z,11.69
2018-11-11T04:19:23.840Z,11.67
2018-11-11T04:20:23.814Z,11.79
2018-11-11T04:21:23.812Z,11.77
2018-11-11T04:22:23.831Z,11.79
2018-11-11T04:23:23.785Z,11.76
2018-11-11T04:24:23.768Z,11.80
2018-11-11T04:25:23.763Z,11.79
2018-11-11T04:26:23.750Z,11.82
2018-11-11T04:27:23.747Z,11.85
2018-11-11T04:28:23.752Z,11.85
2018-11-11T04:29:23.712Z,11.87
2018-11-11T04:30:23.726Z,11.85
2018-11-11T04:31:23.704Z,11.89
2018-11-11T04:32:23.681Z,11.89
2018-11-11T04:33:23.696Z,11.99
2018-11-11T04:34:23.657Z,11.96
2018-11-11T04:35:23.647Z,11.89
2018-11-11T04:36:23.643Z,11.87
2018-11-11T04:37:23.633Z,11.87
2018-11-11T04:38:23.930Z,11.89
2018-11-11T04:39:23.733Z,11.99
2018-11-11T04:40:23.588Z,11.97
2018-11-11T04:41:23.577Z,11.97
2018-11-11T04:42:23.572Z,11.97
2018-11-11T04:43:23.573Z,11.88
2018-11-11T04:44:23.574Z,11.99
2018-11-11T04:45:23.535Z,11.99
2018-11-11T04:46:23.609Z,11.99
2018-11-11T04:47:23.513Z,11.97
2018-11-11T04:48:23.502Z,11.96
2018-11-11T04:49:23.499Z,11.99
2018-11-11T04:50:23.514Z,12.00
2018-11-11T04:51:23.474Z,12.05
2018-11-11T04:52:23.453Z,12.05
2018-11-11T04:53:23.445Z,11.97
2018-11-11T04:54:23.440Z,12.05
2018-11-11T04:55:23.536Z,12.00
2018-11-11T04:56:23.413Z,12.00
2018-11-11T04:57:23.403Z,12.08
2018-11-11T04:58:23.388Z,12.08
2018-11-11T04:59:23.388Z,12.08
2018-11-11T05:00:23.398Z,12.03
2018-11-11T05:01:23.473Z,12.17
2018-11-11T05:02:23.382Z,12.00
2018-11-11T05:03:23.333Z,12.05
2018-11-11T05:04:23.326Z,12.17
2018-11-11T05:05:23.338Z,12.11
2018-11-11T05:06:23.301Z,12.08
2018-11-11T05:07:23.289Z,12.11
2018-11-11T05:08:23.511Z,12.18
2018-11-11T05:09:23.264Z,12.15
2018-11-11T05:10:23.261Z,12.08
2018-11-11T05:11:23.244Z,12.14
2018-11-11T05:12:23.263Z,12.14
2018-11-11T05:13:23.217Z,12.07
2018-11-11T05:14:23.225Z,12.21
2018-11-11T05:15:23.203Z,12.10
2018-11-11T05:16:23.183Z,12.21
2018-11-11T05:17:23.183Z,12.00
2018-11-11T05:18:23.197Z,12.17
2018-11-11T05:19:23.153Z,12.26
2018-11-11T05:20:23.145Z,12.08
2018-11-11T05:21:23.138Z,12.13
2018-11-11T05:22:23.116Z,12.10
2018-11-11T05:23:23.115Z,12.10
2018-11-11T05:24:23.124Z,12.14
2018-11-11T05:25:23.085Z,12.04
2018-11-11T05:26:23.077Z,12.23
2018-11-11T05:27:23.120Z,12.11
2018-11-11T05:28:23.055Z,12.13
2018-11-11T05:29:23.039Z,12.14
2018-11-11T05:30:23.032Z,12.13
2018-11-11T05:31:23.018Z,12.11
2018-11-11T05:32:23.006Z,12.08
2018-11-11T05:33:23.030Z,12.08
2018-11-11T05:34:22.979Z,12.00
2018-11-11T05:35:22.970Z,12.11
2018-11-11T05:36:22.963Z,11.96
2018-11-11T05:37:22.954Z,11.99
2018-11-11T05:38:23.069Z,11.99
2018-11-11T05:39:22.979Z,11.97
2018-11-11T05:40:22.921Z,11.96
2018-11-11T05:41:22.912Z,12.00
2018-11-11T05:42:22.892Z,11.96
2018-11-11T05:43:22.883Z,11.97
2018-11-11T05:44:22.878Z,11.93
2018-11-11T05:45:22.894Z,11.93
2018-11-11T05:46:22.867Z,11.95
2018-11-11T05:47:22.840Z,11.91
2018-11-11T05:48:22.832Z,11.99
2018-11-11T05:49:22.822Z,11.97
2018-11-11T05:50:22.804Z,12.05
2018-11-11T05:51:22.822Z,11.99
2018-11-11T05:52:22.783Z,12.00
2018-11-11T05:53:22.826Z,11.97
2018-11-11T05:54:22.759Z,11.99
2018-11-11T05:55:22.755Z,11.93
2018-11-11T05:56:22.738Z,11.97
2018-11-11T05:57:22.732Z,11.88
2018-11-11T05:58:22.718Z,11.80
2018-11-11T05:59:22.736Z,11.87
2018-11-11T06:00:22.702Z,11.88
2018-11-11T06:01:22.680Z,11.85
2018-11-11T06:02:22.672Z,11.84
2018-11-11T06:03:22.659Z,11.80
2018-11-11T06:04:22.654Z,11.82
2018-11-11T06:05:22.671Z,11.74
2018-11-11T06:06:22.641Z,11.80
2018-11-11T06:07:22.613Z,11.84
2018-11-11T06:08:22.650Z,11.82
2018-11-11T06:09:22.592Z,11.80
2018-11-11T06:10:22.583Z,11.73
2018-11-11T06:11:22.567Z,11.76
2018-11-11T06:12:22.571Z,11.69
2018-11-11T06:13:22.583Z,11.74
2018-11-11T06:14:22.537Z,11.80
2018-11-11T06:15:22.525Z,11.77
2018-11-11T06:16:22.512Z,11.73
2018-11-11T06:17:22.501Z,11.76
2018-11-11T06:18:22.537Z,11.85
2018-11-11T06:19:22.558Z,11.87
2018-11-11T06:20:22.475Z,11.93
2018-11-11T06:21:22.456Z,11.79
2018-11-11T06:22:22.449Z,11.84
2018-11-11T06:23:22.446Z,11.87
2018-11-11T06:24:22.452Z,11.84
2018-11-11T06:25:22.504Z,11.89
2018-11-11T06:26:22.433Z,11.87
2018-11-11T06:27:22.402Z,11.88
2018-11-11T06:28:22.380Z,11.88
2018-11-11T06:29:22.399Z,11.88
2018-11-11T06:30:22.355Z,11.96
2018-11-11T06:31:22.372Z,11.97
2018-11-11T06:32:22.334Z,12.04
2018-11-11T06:33:22.352Z,12.05
2018-11-11T06:34:22.313Z,11.96
2018-11-11T06:35:22.311Z,12.04
2018-11-11T06:36:22.303Z,12.08
2018-11-11T06:37:22.277Z,12.07
2018-11-11T06:38:22.514Z,12.17
2018-11-11T06:39:22.330Z,12.07
2018-11-11T06:40:22.247Z,12.13
2018-11-11T06:41:22.239Z,12.15
2018-11-11T06:42:22.228Z,12.13
2018-11-11T06:43:22.223Z,12.17
2018-11-11T06:44:22.202Z,12.18
2018-11-11T06:45:22.217Z,12.11
2018-11-11T06:46:22.181Z,12.29
2018-11-11T06:47:22.174Z,12.15
2018-11-11T06:48:22.160Z,12.18
2018-11-11T06:49:22.144Z,12.17
2018-11-11T06:50:22.199Z,12.25
2018-11-11T06:51:22.134Z,12.23
2018-11-11T06:52:22.134Z,12.22
2018-11-11T06:53:22.137Z,12.21
2018-11-11T06:54:22.129Z,12.22
2018-11-11T06:55:22.117Z,12.18
2018-11-11T06:56:22.067Z,12.26
2018-11-11T06:57:22.092Z,12.25
2018-11-11T06:58:22.157Z,12.14
2018-11-11T06:59:22.040Z,12.23
2018-11-11T07:00:22.027Z,12.29
2018-11-11T07:01:22.045Z,12.23
2018-11-11T07:02:21.998Z,12.25
2018-11-11T07:03:21.987Z,12.25
2018-11-11T07:04:22.008Z,12.35
2018-11-11T07:05:21.972Z,12.33
2018-11-11T07:06:21.966Z,12.30
2018-11-11T07:07:21.990Z,12.28
2018-11-11T07:08:22.099Z,12.29
2018-11-11T07:09:21.920Z,12.33
2018-11-11T07:10:21.937Z,12.33
2018-11-11T07:11:21.899Z,12.30
2018-11-11T07:12:21.889Z,12.30
2018-11-11T07:13:21.887Z,12.33
2018-11-11T07:14:21.865Z,12.36
2018-11-11T07:15:21.855Z,12.36
2018-11-11T07:16:21.887Z,12.47
2018-11-11T07:17:21.831Z,12.43
2018-11-11T07:18:21.850Z,12.46
2018-11-11T07:19:21.818Z,12.44
2018-11-11T07:20:21.802Z,12.53
2018-11-11T07:21:21.792Z,12.46
2018-11-11T07:22:21.775Z,12.61
2018-11-11T07:23:21.872Z,12.58
2018-11-11T07:24:21.813Z,12.59
2018-11-11T07:25:21.741Z,12.65
2018-11-11T07:26:21.742Z,12.63
2018-11-11T07:27:21.727Z,12.62
2018-11-11T07:28:21.713Z,12.69
2018-11-11T07:29:21.699Z,12.59
2018-11-11T07:30:21.770Z,12.65
2018-11-11T07:31:21.721Z,12.65
2018-11-11T07:32:21.663Z,12.71
2018-11-11T07:33:21.695Z,12.68
2018-11-11T07:34:21.667Z,12.71
2018-11-11T07:35:21.635Z,12.69
2018-11-11T07:36:21.624Z,12.73
2018-11-11T07:37:21.615Z,12.80
2018-11-11T07:38:21.719Z,12.80
2018-11-11T07:39:21.627Z,12.91
2018-11-11T07:40:21.575Z,12.87
2018-11-11T07:41:21.569Z,12.88
2018-11-11T07:42:21.612Z,12.99
2018-11-11T07:43:21.538Z,12.96
2018-11-11T07:44:21.537Z,12.98
2018-11-11T07:45:21.550Z,12.98
2018-11-11T07:46:21.504Z,12.98
2018-11-11T07:47:21.495Z,12.98
2018-11-11T07:48:21.486Z,12.99
2018-11-11T07:49:21.493Z,13.06
2018-11-11T07:50:21.467Z,13.11
2018-11-11T07:51:21.478Z,13.20
2018-11-11T07:52:21.437Z,13.14
2018-11-11T07:53:21.427Z,13.21
2018-11-11T07:54:21.419Z,13.24
2018-11-11T07:55:21.478Z,13.16
2018-11-11T07:56:21.399Z,13.23
2018-11-11T07:57:21.411Z,13.32
2018-11-11T07:58:21.410Z,13.45
2018-11-11T07:59:21.362Z,13.45
2018-11-11T08:00:21.349Z,13.46
2018-11-11T08:01:21.374Z,13.43
2018-11-11T08:02:21.378Z,13.40
2018-11-11T08:03:21.312Z,13.47
2018-11-11T08:04:21.314Z,13.40
2018-11-11T08:05:21.305Z,13.42
2018-11-11T08:06:21.280Z,13.45
2018-11-11T08:07:21.304Z,13.42
2018-11-11T08:08:21.533Z,13.40
2018-11-11T08:09:21.284Z,13.40
2018-11-11T08:10:21.255Z,13.43
2018-11-11T08:11:21.318Z,13.40
2018-11-11T08:12:21.215Z,13.42
2018-11-11T08:13:21.229Z,13.46
2018-11-11T08:14:21.191Z,13.43
2018-11-11T08:15:21.209Z,13.42
2018-11-11T08:16:21.183Z,13.43
2018-11-11T08:17:21.167Z,13.38
2018-11-11T08:18:21.144Z,13.42
2018-11-11T08:19:21.131Z,13.43
2018-11-11T08:20:21.151Z,13.45
2018-11-11T08:21:21.140Z,13.43
2018-11-11T08:22:21.099Z,13.38
2018-11-11T08:23:21.117Z,13.27
2018-11-11T08:24:21.086Z,13.38
2018-11-11T08:25:21.123Z,13.30
2018-11-11T08:26:21.087Z,13.43
2018-11-11T08:27:21.044Z,13.29
2018-11-11T08:28:21.039Z,13.26
2018-11-11T08:29:21.030Z,13.24
2018-11-11T08:30:21.011Z,13.43
2018-11-11T08:31:21.030Z,13.40
2018-11-11T08:32:21.072Z,13.43
2018-11-11T08:33:20.978Z,13.43
2018-11-11T08:34:20.963Z,13.32
2018-11-11T08:35:20.952Z,13.43
2018-11-11T08:36:20.953Z,13.40
2018-11-11T08:37:20.941Z,13.39
2018-11-11T08:38:21.109Z,13.40
2018-11-11T08:39:20.910Z,13.35
2018-11-11T08:40:20.931Z,13.36
2018-11-11T08:41:20.918Z,13.40
2018-11-11T08:42:20.914Z,13.45
2018-11-11T08:43:20.874Z,13.43
2018-11-11T08:44:20.853Z,13.43
2018-11-11T08:45:20.842Z,13.46
2018-11-11T08:46:20.834Z,13.54
2018-11-11T08:47:20.819Z,13.53
2018-11-11T08:48:20.968Z,13.54
2018-11-11T08:49:20.799Z,13.61
2018-11-11T08:50:20.797Z,13.68
2018-11-11T08:51:20.812Z,13.64
2018-11-11T08:52:20.767Z,13.78
2018-11-11T08:53:20.760Z,13.75
2018-11-11T08:54:20.772Z,13.68
2018-11-11T08:55:20.763Z,13.76
2018-11-11T08:56:20.725Z,13.82
2018-11-11T08:57:20.707Z,13.71
2018-11-11T08:58:20.718Z,13.61
2018-11-11T08:59:20.682Z,13.68
2018-11-11T09:00:20.673Z,13.65
2018-11-11T09:01:20.690Z,13.68
2018-11-11T09:02:20.649Z,13.72
2018-11-11T09:03:20.650Z,13.61
2018-11-11T09:04:20.633Z,13.67
2018-11-11T09:05:20.614Z,13.71
2018-11-11T09:06:20.603Z,13.73
2018-11-11T09:07:20.627Z,13.90
2018-11-11T09:08:20.676Z,13.86
2018-11-11T09:09:20.587Z,13.88
2018-11-11T09:10:20.567Z,13.94
2018-11-11T09:11:20.637Z,13.90
2018-11-11T09:12:20.576Z,14.00
2018-11-11T09:13:20.535Z,13.98
2018-11-11T09:14:20.567Z,13.88
2018-11-11T09:15:20.514Z,13.82
2018-11-11T09:16:20.502Z,13.86
2018-11-11T09:17:20.577Z,13.82
2018-11-11T09:18:20.497Z,13.82
2018-11-11T09:19:20.461Z,13.85
2018-11-11T09:20:20.481Z,13.83
2018-11-11T09:21:20.488Z,13.80
2018-11-11T09:22:20.439Z,13.83
2018-11-11T09:23:20.411Z,13.80
2018-11-11T09:24:20.418Z,13.83
2018-11-11T09:25:20.438Z,13.79
2018-11-11T09:26:20.413Z,13.75
2018-11-11T09:27:20.372Z,13.85
2018-11-11T09:28:20.402Z,13.82
2018-11-11T09:29:20.351Z,13.91
2018-11-11T09:30:20.420Z,13.91
2018-11-11T09:31:20.336Z,13.90
2018-11-11T09:32:20.312Z,13.96
2018-11-11T09:33:20.304Z,13.93
2018-11-11T09:34:20.322Z,14.03
2018-11-11T09:35:20.397Z,14.11
2018-11-11T09:36:20.268Z,14.04
2018-11-11T09:37:20.266Z,14.13
2018-11-11T09:38:20.559Z,14.23
2018-11-11T09:39:20.278Z,14.16
2018-11-11T09:40:20.223Z,14.12
2018-11-11T09:41:20.212Z,14.30
2018-11-11T09:42:20.255Z,14.30
2018-11-11T09:43:20.192Z,14.22
2018-11-11T09:44:20.192Z,14.21
2018-11-11T09:45:20.194Z,14.11
2018-11-11T09:46:20.153Z,14.09
2018-11-11T09:47:20.145Z,14.19
2018-11-11T09:48:20.141Z,14.22
2018-11-11T09:49:20.123Z,14.23
2018-11-11T09:50:20.114Z,14.22
2018-11-11T09:51:20.137Z,14.12
2018-11-11T09:52:20.091Z,14.28
2018-11-11T09:53:20.081Z,14.23
2018-11-11T09:54:20.111Z,14.30
2018-11-11T09:55:20.079Z,14.27
2018-11-11T09:56:20.051Z,14.40
2018-11-11T09:57:20.050Z,14.46
2018-11-11T09:58:20.049Z,14.45
2018-11-11T09:59:20.020Z,14.52
2018-11-11T10:00:20.050Z,14.66
2018-11-11T10:01:19.989Z,14.64
2018-11-11T10:02:19.981Z,14.64
2018-11-11T10:03:19.988Z,14.64
2018-11-11T10:04:19.960Z,14.63
2018-11-11T10:05:19.947Z,14.55
2018-11-11T10:06:20.000Z,14.56
2018-11-11T10:07:19.928Z,14.56
2018-11-11T10:08:20.122Z,14.61
2018-11-11T10:09:19.913Z,14.52
2018-11-11T10:10:19.888Z,14.53
2018-11-11T10:11:19.880Z,14.45
2018-11-11T10:12:19.976Z,14.46
2018-11-11T10:13:19.862Z,14.41
2018-11-11T10:14:19.852Z,14.45
2018-11-11T10:15:19.872Z,14.46
2018-11-11T10:16:19.845Z,14.52
2018-11-11T10:17:19.815Z,14.48
2018-11-11T10:18:19.840Z,14.55
2018-11-11T10:19:19.794Z,14.49
2018-11-11T10:20:19.869Z,14.45
2018-11-11T10:21:19.801Z,14.44
2018-11-11T10:22:19.756Z,14.40
2018-11-11T10:23:19.793Z,14.44
2018-11-11T10:24:19.735Z,14.53
2018-11-11T10:25:19.725Z,14.48
2018-11-11T10:26:19.720Z,14.52
2018-11-11T10:27:19.757Z,14.48
2018-11-11T10:28:19.689Z,14.58
2018-11-11T10:29:19.803Z,14.48
2018-11-11T10:30:19.669Z,14.34
2018-11-11T10:31:19.661Z,14.40
2018-11-11T10:32:19.651Z,14.34
2018-11-11T10:33:19.692Z,14.44
2018-11-11T10:34:19.629Z,14.28
2018-11-11T10:35:19.654Z,14.38
2018-11-11T10:36:19.611Z,14.41
2018-11-11T10:37:19.611Z,14.30
2018-11-11T10:38:19.703Z,14.28
2018-11-11T10:39:19.672Z,14.23
2018-11-11T10:40:19.570Z,14.23
2018-11-11T10:41:19.590Z,14.28
2018-11-11T10:42:19.536Z,14.30
2018-11-11T10:43:19.526Z,14.31
2018-11-11T10:44:19.571Z,14.28
2018-11-11T10:45:19.504Z,14.31
2018-11-11T10:46:19.503Z,14.33
2018-11-11T10:47:19.525Z,14.37
2018-11-11T10:48:19.471Z,14.38
2018-11-11T10:49:19.494Z,14.46
2018-11-11T10:50:19.453Z,14.45
2018-11-11T10:51:19.441Z,14.52
2018-11-11T10:52:19.463Z,14.55
2018-11-11T10:53:19.426Z,14.56
2018-11-11T10:54:19.455Z,14.56
2018-11-11T10:55:19.401Z,14.52
2018-11-11T10:56:19.428Z,14.55
2018-11-11T10:57:19.372Z,14.66
2018-11-11T10:58:19.393Z,14.66
2018-11-11T10:59:19.356Z,14.74
2018-11-11T11:00:19.525Z,14.74
2018-11-11T11:01:19.333Z,14.74
2018-11-11T11:02:19.327Z,14.86
2018-11-11T11:03:19.336Z,14.70
2018-11-11T11:04:19.343Z,14.74
2018-11-11T11:05:19.288Z,14.77
2018-11-11T11:06:19.272Z,14.66
2018-11-11T11:07:19.299Z,14.61
2018-11-11T11:08:19.268Z,14.67
2018-11-11T11:09:19.274Z,14.69
2018-11-11T11:10:19.229Z,14.67
2018-11-11T11:11:19.226Z,14.73
2018-11-11T11:12:19.223Z,14.82
2018-11-11T11:13:19.245Z,14.70
2018-11-11T11:14:19.223Z,14.78
2018-11-11T11:15:19.184Z,14.87
2018-11-11T11:16:19.164Z,14.77
2018-11-11T11:17:19.164Z,14.78
2018-11-11T11:18:19.149Z,14.78
2018-11-11T11:19:19.132Z,14.73
2018-11-11T11:20:19.155Z,14.82
2018-11-11T11:21:19.107Z,14.79
2018-11-11T11:22:19.100Z,14.86
2018-11-11T11:23:19.088Z,14.85
2018-11-11T11:24:19.080Z,14.86
2018-11-11T11:25:19.098Z,14.90
2018-11-11T11:26:19.061Z,14.92
2018-11-11T11:27:19.209Z,14.89
2018-11-11T11:28:19.031Z,14.95
2018-11-11T11:29:19.017Z,14.95
2018-11-11T11:30:19.013Z,15.05
2018-11-11T11:31:19.075Z,14.97
2018-11-11T11:32:19.027Z,15.03
2018-11-11T11:33:18.975Z,14.92
2018-11-11T11:34:18.968Z,14.87
2018-11-11T11:35:18.983Z,15.04
2018-11-11T11:36:18.943Z,14.99
2018-11-11T11:37:18.976Z,15.08
2018-11-11T11:38:19.174Z,15.14
2018-11-11T11:39:18.909Z,15.20
2018-11-11T11:40:18.901Z,15.32
2018-11-11T11:41:18.966Z,15.25
2018-11-11T11:42:18.934Z,15.29
2018-11-11T11:43:18.906Z,15.26
2018-11-11T11:44:18.873Z,15.38
2018-11-11T11:45:18.850Z,15.41
2018-11-11T11:46:18.874Z,15.32
2018-11-11T11:47:18.918Z,15.32
2018-11-11T11:48:18.827Z,15.36
2018-11-11T11:49:18.848Z,15.35
2018-11-11T11:50:18.831Z,15.43
2018-11-11T11:51:18.835Z,15.38
2018-11-11T11:52:18.875Z,15.25
2018-11-11T11:53:18.754Z,15.38
2018-11-11T11:54:18.746Z,15.41
2018-11-11T11:55:18.754Z,15.44
2018-11-11T11:56:18.726Z,15.45
2018-11-11T11:57:18.748Z,15.56
2018-11-11T11:58:18.698Z,15.52
2018-11-11T11:59:18.688Z,15.63
2018-11-11T12:00:18.677Z,15.76
2018-11-11T12:01:18.778Z,15.83
2018-11-11T12:02:18.737Z,15.91
2018-11-11T12:03:18.651Z,15.77
2018-11-11T12:04:18.670Z,15.84
2018-11-11T12:05:18.657Z,15.80
2018-11-11T12:06:18.651Z,15.87
2018-11-11T12:07:18.608Z,15.96
2018-11-11T12:08:18.756Z,16.00
2018-11-11T12:09:18.600Z,16.08
2018-11-11T12:10:18.563Z,16.13
2018-11-11T12:11:18.561Z,16.17
2018-11-11T12:12:18.590Z,16.28
2018-11-11T12:13:18.534Z,16.34
2018-11-11T12:14:18.546Z,16.36
2018-11-11T12:15:18.569Z,16.25
2018-11-11T12:16:18.648Z,16.14
2018-11-11T12:17:18.641Z,16.13
2018-11-11T12:18:18.476Z,16.05
2018-11-11T12:19:18.466Z,16.03
2018-11-11T12:20:18.484Z,16.08
2018-11-11T12:21:18.442Z,16.03
2018-11-11T12:22:18.440Z,16.02
2018-11-11T12:23:18.482Z,15.90
2018-11-11T12:24:18.410Z,15.93
2018-11-11T12:25:18.402Z,15.88
2018-11-11T12:26:18.395Z,15.87
2018-11-11T12:27:18.384Z,15.85
2018-11-11T12:28:18.368Z,15.87
2018-11-11T12:29:18.395Z,15.80
2018-11-11T12:30:18.360Z,15.81
2018-11-11T12:31:18.348Z,15.73
2018-11-11T12:32:18.329Z,15.72
2018-11-11T12:33:18.317Z,15.73
2018-11-11T12:34:18.338Z,15.68
2018-11-11T12:35:18.295Z,15.68
2018-11-11T12:36:18.290Z,15.62
2018-11-11T12:37:18.284Z,15.62
2018-11-11T12:38:18.284Z,15.73
2018-11-11T12:39:18.408Z,15.63
2018-11-11T12:40:18.419Z,15.69
2018-11-11T12:41:18.231Z,15.68
2018-11-11T12:42:18.222Z,15.62
2018-11-11T12:43:18.272Z,15.66
2018-11-11T12:44:18.194Z,15.63
2018-11-11T12:45:18.230Z,15.62
2018-11-11T12:46:18.166Z,15.58
2018-11-11T12:47:18.159Z,15.60
2018-11-11T12:48:18.149Z,15.62
2018-11-11T12:49:18.134Z,15.59
2018-11-11T12:50:18.273Z,15.54
2018-11-11T12:51:18.155Z,15.54
2018-11-11T12:52:18.098Z,15.56